Time;durP1;ratioP1;P1;durP2;ratioP2;P2;SDS_P1;SDS_P2;PMS_P1;PMS_P2;Temp;Humidity;BMP_temperature;BMP_pressure;BME280_temperature;BME280_humidity;BME280_pressure;Samples;Min_cycle;Max_cycle;Signal;HPM_P1;HPM_P2
2022/12/03 00:00:16;;;;;;;36.15;18.52;;;3.60;99.90;;;;;;5076076;28;20051;-68
2022/12/03 00:02:41;;;;;;;40.42;19.63;;;3.60;99.90;;;;;;5043955;28;20033;-68
2022/12/03 00:05:08;;;;;;;38.28;20.77;;;3.60;99.90;;;;;;5047927;28;20625;-68
2022/12/03 00:07:33;;;;;;;37.70;18.70;;;3.60;99.90;;;;;;5082806;28;20084;-68
2022/12/03 00:09:59;;;;;;;38.42;19.77;;;3.60;99.90;;;;;;5067618;28;20044;-68
2022/12/03 00:12:24;;;;;;;36.78;18.38;;;3.60;99.90;;;;;;5052218;28;20056;-68
2022/12/03 00:14:50;;;;;;;38.67;20.33;;;3.60;99.90;;;;;;5048999;28;20049;-68
2022/12/03 00:17:16;;;;;;;36.15;18.98;;;3.60;99.90;;;;;;5035306;28;20041;-68
2022/12/03 00:19:42;;;;;;;37.75;19.00;;;3.60;99.90;;;;;;5038965;28;20490;-68
2022/12/03 00:22:07;;;;;;;41.10;20.10;;;3.60;99.90;;;;;;5073162;28;20064;-68
2022/12/03 00:24:33;;;;;;;38.78;19.75;;;3.60;99.90;;;;;;5037957;28;20120;-68
2022/12/03 00:26:59;;;;;;;41.55;20.48;;;3.60;99.90;;;;;;5064151;28;20412;-68
2022/12/03 00:29:24;;;;;;;39.05;19.58;;;3.60;99.90;;;;;;5068093;28;20074;-68
2022/12/03 00:31:50;;;;;;;37.30;19.17;;;3.60;99.90;;;;;;5052158;28;20076;-68
2022/12/03 00:34:16;;;;;;;39.63;19.27;;;3.60;99.90;;;;;;5049891;28;20062;-68
2022/12/03 00:36:41;;;;;;;39.05;19.63;;;3.60;99.90;;;;;;5045193;28;20064;-68
2022/12/03 00:39:07;;;;;;;39.55;19.50;;;3.60;99.90;;;;;;5042307;28;20045;-68
2022/12/03 00:41:33;;;;;;;38.58;20.70;;;3.50;99.90;;;;;;5058997;28;20049;-68
2022/12/03 00:43:58;;;;;;;39.65;19.85;;;3.50;99.90;;;;;;5059313;28;20049;-68
2022/12/03 00:46:24;;;;;;;39.78;19.30;;;3.50;99.90;;;;;;5048406;28;20045;-68
2022/12/03 00:48:50;;;;;;;37.47;17.80;;;3.50;99.90;;;;;;5048285;28;20074;-68
2022/12/03 00:51:15;;;;;;;36.17;18.00;;;3.50;99.90;;;;;;5047851;28;20057;-68
2022/12/03 00:53:41;;;;;;;38.58;19.15;;;3.50;99.90;;;;;;5063929;28;20039;-68
2022/12/03 00:56:07;;;;;;;45.13;20.02;;;3.50;99.90;;;;;;5047800;28;20106;-68
2022/12/03 00:58:33;;;;;;;34.30;17.63;;;3.50;99.90;;;;;;5060707;28;20074;-68
2022/12/03 01:00:59;;;;;;;39.38;20.42;;;3.50;99.90;;;;;;5054178;28;20123;-68
2022/12/03 01:03:24;;;;;;;35.13;18.25;;;3.50;99.90;;;;;;5067595;28;20051;-68
2022/12/03 01:05:50;;;;;;;41.08;20.45;;;3.50;99.90;;;;;;5071837;28;20080;-68
2022/12/03 01:08:15;;;;;;;39.47;19.35;;;3.40;99.90;;;;;;5054556;28;20045;-68
2022/12/03 01:10:41;;;;;;;40.97;20.95;;;3.40;99.90;;;;;;5054754;28;20058;-68
2022/12/03 01:13:07;;;;;;;39.50;18.80;;;3.40;99.90;;;;;;5053104;28;20579;-68
2022/12/03 01:15:33;;;;;;;39.58;20.08;;;3.40;99.90;;;;;;5060951;28;20060;-68
2022/12/03 01:17:58;;;;;;;36.08;19.05;;;3.50;99.90;;;;;;5030643;28;20044;-68
2022/12/03 01:20:24;;;;;;;42.05;21.10;;;3.50;99.90;;;;;;5052211;28;20056;-68
2022/12/03 01:22:50;;;;;;;36.55;18.95;;;3.50;99.90;;;;;;5073523;28;20076;-68
2022/12/03 01:25:15;;;;;;;37.42;19.88;;;3.50;99.90;;;;;;5056578;28;20040;-68
2022/12/03 01:27:41;;;;;;;38.38;19.10;;;3.60;99.90;;;;;;5045567;28;20056;-68
2022/12/03 01:30:07;;;;;;;35.60;19.50;;;3.50;99.90;;;;;;5045206;28;20041;-68
2022/12/03 01:32:33;;;;;;;35.17;18.05;;;3.60;99.90;;;;;;5048277;28;20058;-68
2022/12/03 01:34:59;;;;;;;36.28;19.42;;;3.70;99.90;;;;;;5063540;28;20044;-68
2022/12/03 01:37:25;;;;;;;36.15;19.13;;;3.70;99.90;;;;;;5047127;28;20049;-68
2022/12/03 01:39:51;;;;;;;34.35;18.63;;;3.70;99.90;;;;;;5033507;28;20037;-68
2022/12/03 01:42:23;;;;;;;37.33;20.15;;;3.70;99.90;;;;;;5065730;28;20123;-68
2022/12/03 01:44:52;;;;;;;34.88;18.80;;;3.70;99.90;;;;;;5035975;28;20385;-68
2022/12/03 01:47:21;;;;;;;38.00;20.75;;;3.70;99.90;;;;;;5045221;28;20064;-68
2022/12/03 01:49:54;;;;;;;34.92;19.50;;;3.70;99.90;;;;;;5043411;28;20044;-68
2022/12/03 01:52:24;;;;;;;34.50;18.70;;;3.60;99.90;;;;;;5055990;28;20049;-68
2022/12/03 01:54:56;;;;;;;36.88;18.80;;;3.60;99.90;;;;;;5033459;28;20052;-68
2022/12/03 01:57:41;;;;;;;35.28;17.98;;;3.60;99.90;;;;;;5065764;28;20466;-68
2022/12/03 02:00:17;;;;;;;32.95;18.05;;;3.60;99.90;;;;;;5069201;28;20044;-68
2022/12/03 02:02:45;;;;;;;34.33;18.67;;;3.60;99.90;;;;;;5067242;28;20106;-68
2022/12/03 02:05:16;;;;;;;33.35;19.30;;;3.60;99.90;;;;;;5058302;28;20049;-68
2022/12/03 02:07:42;;;;;;;34.10;19.38;;;3.60;99.90;;;;;;5070827;28;20049;-68
2022/12/03 02:10:10;;;;;;;33.53;18.92;;;3.50;99.90;;;;;;5064294;28;20059;-68
2022/12/03 02:12:58;;;;;;;34.08;19.45;;;3.60;99.90;;;;;;5066494;28;20052;-68
2022/12/03 02:15:24;;;;;;;30.42;17.25;;;3.60;99.90;;;;;;5051759;28;20063;-68
2022/12/03 02:17:50;;;;;;;35.65;19.30;;;3.50;99.90;;;;;;5041703;28;20472;-68
2022/12/03 02:20:16;;;;;;;30.92;18.70;;;3.50;99.90;;;;;;5049481;28;20049;-68
2022/12/03 02:23:19;;;;;;;36.00;19.85;;;3.50;99.90;;;;;;5071319;28;20068;-68
2022/12/03 02:25:45;;;;;;;33.85;17.95;;;3.50;99.90;;;;;;5057813;28;20038;-68
2022/12/03 02:28:11;;;;;;;34.03;19.23;;;3.50;99.90;;;;;;5039009;28;20104;-68
2022/12/03 02:30:37;;;;;;;34.08;18.48;;;3.50;99.90;;;;;;5035997;28;20394;-68
2022/12/03 02:33:02;;;;;;;34.30;18.45;;;3.60;99.90;;;;;;5057430;28;20186;-68
2022/12/03 02:35:33;;;;;;;34.95;19.48;;;3.60;99.90;;;;;;5058435;28;20050;-68
2022/12/03 02:38:15;;;;;;;34.40;18.55;;;3.60;99.90;;;;;;5060708;28;20049;-68
2022/12/03 02:40:42;;;;;;;36.50;20.30;;;3.60;99.90;;;;;;5069361;28;20049;-68
2022/12/03 02:43:09;;;;;;;33.65;19.58;;;3.60;99.90;;;;;;5058635;28;20052;-68
2022/12/03 02:45:43;;;;;;;34.95;19.15;;;3.60;99.90;;;;;;5036375;28;20139;-68
2022/12/03 02:48:16;;;;;;;31.98;18.50;;;3.60;99.90;;;;;;5046392;28;20049;-68
2022/12/03 02:50:50;;;;;;;34.38;19.13;;;3.60;99.90;;;;;;5037739;28;20105;-68
2022/12/03 02:53:45;;;;;;;34.20;19.35;;;3.60;99.90;;;;;;5028469;28;20049;-68
2022/12/03 02:56:13;;;;;;;33.03;18.40;;;3.60;99.90;;;;;;5039153;28;20063;-68
2022/12/03 02:58:40;;;;;;;35.13;19.15;;;3.60;99.90;;;;;;5066294;28;20056;-68
2022/12/03 03:01:08;;;;;;;31.10;17.17;;;3.60;99.90;;;;;;5083536;28;20044;-68
2022/12/03 03:03:36;;;;;;;32.42;18.55;;;3.60;99.90;;;;;;5058424;28;20053;-68
2022/12/03 03:06:05;;;;;;;34.75;19.70;;;3.60;99.90;;;;;;5036270;28;20053;-68
2022/12/03 03:08:31;;;;;;;31.10;19.10;;;3.60;99.90;;;;;;5060667;28;20060;-68
2022/12/03 03:10:59;;;;;;;35.72;19.55;;;3.60;99.90;;;;;;5047015;28;20064;-68
2022/12/03 03:13:26;;;;;;;34.72;19.15;;;3.60;99.90;;;;;;5029496;28;20045;-68
2022/12/03 03:15:51;;;;;;;35.60;19.27;;;3.50;99.90;;;;;;5054923;28;20044;-68
2022/12/03 03:18:19;;;;;;;36.83;20.20;;;3.50;99.90;;;;;;5026906;28;20073;-68
2022/12/03 03:20:45;;;;;;;34.90;18.90;;;3.50;99.90;;;;;;5089244;28;20102;-68
2022/12/03 03:23:11;;;;;;;33.60;18.88;;;3.50;99.90;;;;;;5061924;28;20056;-68
2022/12/03 03:26:02;;;;;;;33.83;19.00;;;3.50;99.90;;;;;;5049938;28;20045;-68
2022/12/03 03:28:29;;;;;;;33.78;18.58;;;3.40;99.90;;;;;;5059704;28;20068;-68
2022/12/03 03:30:57;;;;;;;37.13;20.73;;;3.40;99.90;;;;;;5055861;28;20045;-68
2022/12/03 03:33:23;;;;;;;33.90;19.00;;;3.40;99.90;;;;;;5058884;28;20041;-68
2022/12/03 03:35:49;;;;;;;30.80;17.48;;;3.40;99.90;;;;;;5059213;28;20404;-68
2022/12/03 03:38:18;;;;;;;34.83;19.25;;;3.30;99.90;;;;;;5076762;28;20100;-68
2022/12/03 03:40:44;;;;;;;36.10;19.23;;;3.30;99.90;;;;;;5051707;28;20521;-68
2022/12/03 03:43:11;;;;;;;34.88;21.05;;;3.40;99.90;;;;;;5048645;28;20052;-68
2022/12/03 03:45:37;;;;;;;33.72;19.55;;;3.30;99.90;;;;;;5037762;28;20053;-68
2022/12/03 03:48:02;;;;;;;34.00;18.67;;;3.40;99.90;;;;;;5059627;28;20099;-68
2022/12/03 03:50:30;;;;;;;34.15;18.77;;;3.30;99.90;;;;;;5048241;28;20053;-68
2022/12/03 03:52:57;;;;;;;34.47;18.60;;;3.30;99.90;;;;;;5069239;28;20052;-68
2022/12/03 03:55:23;;;;;;;36.75;18.98;;;3.30;99.90;;;;;;5041728;28;20060;-68
2022/12/03 03:57:49;;;;;;;34.78;19.77;;;3.30;99.90;;;;;;5059613;28;20075;-68
2022/12/03 04:00:15;;;;;;;33.80;17.85;;;3.30;99.90;;;;;;5063608;28;20119;-68
2022/12/03 04:02:41;;;;;;;32.33;17.10;;;3.30;99.90;;;;;;5069091;28;20060;-68
2022/12/03 04:05:15;;;;;;;31.77;17.25;;;3.30;99.90;;;;;;5065493;28;20048;-68
2022/12/03 04:07:41;;;;;;;34.83;17.95;;;3.30;99.90;;;;;;5046861;28;20589;-68
2022/12/03 04:12:54;;;;;;;34.38;18.17;;;3.30;99.90;;;;;;5068450;28;20075;-68
2022/12/03 04:12:55;;;;;;;30.75;17.92;;;3.30;99.90;;;;;;5068441;28;20565;-68
2022/12/03 04:15:22;;;;;;;34.00;19.77;;;3.30;99.90;;;;;;5054502;28;20049;-68
2022/12/03 04:18:41;;;;;;;34.75;18.52;;;3.30;99.90;;;;;;5060334;28;20044;-68
2022/12/03 04:20:33;;;;;;;33.10;17.02;;;3.30;99.90;;;;;;5037215;28;20052;-68
2022/12/03 04:22:59;;;;;;;32.28;18.55;;;3.30;99.90;;;;;;5066366;28;20076;-68
2022/12/03 04:30:53;;;;;;;34.60;18.83;;;3.40;99.90;;;;;;5065275;28;20115;-68
2022/12/03 04:36:03;;;;;;;34.85;18.52;;;3.40;99.90;;;;;;5072994;28;20060;-68
2022/12/03 04:38:29;;;;;;;29.08;17.38;;;3.30;99.90;;;;;;5084578;28;20055;-68
2022/12/03 04:41:02;;;;;;;31.27;16.30;;;3.30;99.90;;;;;;5073490;28;20037;-68
2022/12/03 04:43:32;;;;;;;31.60;18.05;;;3.30;99.90;;;;;;5070906;28;20053;-68
2022/12/03 04:45:59;;;;;;;30.13;16.45;;;3.30;99.90;;;;;;5040658;28;20053;-68
2022/12/03 04:48:25;;;;;;;30.42;16.38;;;3.30;99.90;;;;;;5043064;28;20045;-68
2022/12/03 04:50:50;;;;;;;29.67;17.25;;;3.30;99.90;;;;;;5047923;28;20096;-68
2022/12/03 04:53:16;;;;;;;32.42;18.23;;;3.20;99.90;;;;;;5044892;28;20510;-68
2022/12/03 04:55:42;;;;;;;31.55;17.40;;;3.20;99.90;;;;;;5068347;28;20084;-68
2022/12/03 04:58:08;;;;;;;29.95;16.42;;;3.20;99.90;;;;;;5064071;28;20044;-68
2022/12/03 05:00:34;;;;;;;29.08;17.27;;;3.30;99.90;;;;;;5051840;28;20317;-68
2022/12/03 05:03:00;;;;;;;31.52;17.73;;;3.30;99.90;;;;;;5053576;28;20049;-68
2022/12/03 05:05:25;;;;;;;33.97;18.50;;;3.30;99.90;;;;;;5069923;28;20041;-68
2022/12/03 05:07:51;;;;;;;30.17;17.13;;;3.30;99.90;;;;;;5052502;28;20040;-68
2022/12/03 05:10:17;;;;;;;30.38;17.92;;;3.20;99.90;;;;;;5047636;28;20140;-68
2022/12/03 05:12:42;;;;;;;29.15;16.23;;;3.20;99.90;;;;;;5030752;28;20041;-68
2022/12/03 05:15:08;;;;;;;30.90;17.25;;;3.20;99.90;;;;;;5033020;28;20056;-68
2022/12/03 05:17:34;;;;;;;32.17;18.10;;;3.20;99.90;;;;;;5055012;28;20104;-68
2022/12/03 05:22:44;;;;;;;31.92;17.80;;;3.20;99.90;;;;;;5039884;28;20112;-68
2022/12/03 05:25:09;;;;;;;36.35;18.00;;;3.20;99.90;;;;;;5035197;28;20056;-72
2022/12/03 05:27:35;;;;;;;33.88;18.73;;;3.20;99.90;;;;;;5049596;28;20051;-68
2022/12/03 05:30:01;;;;;;;33.03;17.75;;;3.20;99.90;;;;;;5044324;28;20045;-68
2022/12/03 05:32:26;;;;;;;32.80;18.38;;;3.20;99.90;;;;;;5030477;28;20101;-68
2022/12/03 05:34:52;;;;;;;31.33;17.27;;;3.20;99.90;;;;;;5046208;28;20053;-68
2022/12/03 05:37:18;;;;;;;30.27;17.50;;;3.20;99.90;;;;;;5047002;28;20056;-68
2022/12/03 05:39:43;;;;;;;31.60;18.60;;;3.20;99.90;;;;;;5053826;28;20092;-68
2022/12/03 05:44:53;;;;;;;31.67;16.90;;;3.30;99.90;;;;;;5054616;28;20057;-68
2022/12/03 05:47:19;;;;;;;34.22;17.95;;;3.30;99.90;;;;;;5053744;28;21060;-68
2022/12/03 05:49:45;;;;;;;31.17;18.33;;;3.20;99.90;;;;;;5085487;28;20052;-68
2022/12/03 05:52:11;;;;;;;32.92;17.95;;;3.30;99.90;;;;;;5066602;28;20051;-68
2022/12/03 05:54:36;;;;;;;31.08;18.67;;;3.30;99.90;;;;;;5033586;28;20116;-68
2022/12/03 05:57:02;;;;;;;32.97;18.77;;;3.20;99.90;;;;;;5055745;28;20145;-68
2022/12/03 05:59:28;;;;;;;31.55;18.38;;;3.30;99.90;;;;;;5039851;28;20045;-68
2022/12/03 06:01:53;;;;;;;32.33;17.92;;;3.40;99.90;;;;;;5046241;28;20053;-68
2022/12/03 06:04:19;;;;;;;36.03;19.42;;;3.30;99.90;;;;;;5066099;28;20041;-68
2022/12/03 06:06:45;;;;;;;31.33;18.60;;;3.20;99.90;;;;;;5037763;28;20056;-68
2022/12/03 06:09:10;;;;;;;31.60;17.85;;;3.30;99.90;;;;;;5030291;28;20045;-68
2022/12/03 06:11:36;;;;;;;32.42;17.25;;;3.20;99.90;;;;;;5028750;28;20413;-68
2022/12/03 06:14:02;;;;;;;33.67;17.50;;;3.30;99.90;;;;;;5086945;28;20049;-68
2022/12/03 06:16:28;;;;;;;31.48;17.35;;;3.20;99.90;;;;;;5041393;28;20482;-68
2022/12/03 06:18:54;;;;;;;35.53;17.63;;;3.30;99.90;;;;;;5069949;28;20071;-68
2022/12/03 06:21:19;;;;;;;31.05;17.02;;;3.30;99.90;;;;;;5053417;28;20041;-68
2022/12/03 06:23:45;;;;;;;30.75;16.67;;;3.20;99.90;;;;;;5051093;28;20052;-68
2022/12/03 06:26:11;;;;;;;31.33;16.67;;;3.20;99.90;;;;;;5043946;28;20067;-68
2022/12/03 06:28:37;;;;;;;31.52;16.88;;;3.20;99.90;;;;;;5064036;28;20041;-68
2022/12/03 06:31:03;;;;;;;32.20;17.02;;;3.20;99.90;;;;;;5065602;28;20043;-68
2022/12/03 06:33:29;;;;;;;31.55;16.17;;;3.20;99.90;;;;;;5064227;28;20052;-68
2022/12/03 06:35:54;;;;;;;30.25;16.95;;;3.20;99.90;;;;;;5040877;28;20092;-68
2022/12/03 06:38:21;;;;;;;32.47;17.88;;;3.20;99.90;;;;;;5061959;28;20057;-68
2022/12/03 06:40:46;;;;;;;33.03;18.27;;;3.20;99.90;;;;;;5065551;28;20086;-68
2022/12/03 06:43:12;;;;;;;34.33;18.30;;;3.10;99.90;;;;;;5060985;28;20076;-68
2022/12/03 06:45:38;;;;;;;30.98;18.25;;;3.20;99.90;;;;;;5030160;28;20071;-68
2022/12/03 06:48:04;;;;;;;32.60;17.52;;;3.20;99.90;;;;;;5050964;28;20059;-68
2022/12/03 06:50:29;;;;;;;34.30;18.42;;;3.10;99.90;;;;;;5057148;28;20354;-68
2022/12/03 06:52:55;;;;;;;33.53;18.92;;;3.10;99.90;;;;;;5044435;28;20083;-68
2022/12/03 06:55:21;;;;;;;32.10;18.50;;;3.10;99.90;;;;;;5067004;28;20104;-68
2022/12/03 06:57:47;;;;;;;36.10;18.60;;;3.20;99.90;;;;;;5037083;28;20049;-68
2022/12/03 07:00:13;;;;;;;34.65;18.67;;;3.10;99.90;;;;;;5063374;28;20041;-68
2022/12/03 07:02:38;;;;;;;37.13;20.45;;;3.10;99.90;;;;;;5049964;28;20049;-68
2022/12/03 07:05:04;;;;;;;40.45;20.35;;;3.10;99.90;;;;;;5038081;28;20049;-68
2022/12/03 07:07:30;;;;;;;33.40;18.75;;;3.00;99.90;;;;;;5059105;28;20072;-68
2022/12/03 07:09:56;;;;;;;43.55;22.48;;;3.10;99.90;;;;;;5059362;28;20063;-68
2022/12/03 07:12:21;;;;;;;42.50;23.17;;;3.20;99.90;;;;;;5078918;28;20124;-68
2022/12/03 07:14:47;;;;;;;40.70;22.35;;;3.10;99.90;;;;;;5040054;28;20049;-68
2022/12/03 07:17:13;;;;;;;39.92;21.00;;;3.00;99.90;;;;;;5051966;28;20041;-68
2022/12/03 07:19:39;;;;;;;36.30;20.98;;;3.00;99.90;;;;;;5047200;28;20049;-68
2022/12/03 07:22:05;;;;;;;39.03;19.85;;;3.00;99.90;;;;;;5065214;28;20056;-68
2022/12/03 07:24:31;;;;;;;37.42;20.35;;;3.00;99.90;;;;;;5057864;28;20041;-68
2022/12/03 07:26:56;;;;;;;37.42;20.00;;;2.90;99.90;;;;;;5038851;28;20051;-68
2022/12/03 07:29:22;;;;;;;37.88;19.42;;;2.90;99.90;;;;;;5073118;28;20076;-68
2022/12/03 07:31:48;;;;;;;41.40;20.77;;;3.00;99.90;;;;;;5046576;28;20494;-68
2022/12/03 07:34:14;;;;;;;40.03;21.02;;;3.00;99.90;;;;;;5040876;28;20101;-68
2022/12/03 07:36:40;;;;;;;37.63;19.85;;;3.00;99.90;;;;;;5048216;28;20040;-68
2022/12/03 07:39:06;;;;;;;35.33;19.67;;;3.00;99.90;;;;;;5062600;28;20041;-68
2022/12/03 07:41:31;;;;;;;43.47;21.88;;;2.90;99.90;;;;;;5072000;28;20048;-68
2022/12/03 07:43:57;;;;;;;38.05;20.42;;;2.90;99.90;;;;;;5052514;28;20069;-68
2022/12/03 07:46:23;;;;;;;44.63;22.38;;;2.90;99.90;;;;;;5079850;28;20049;-69
2022/12/03 07:48:48;;;;;;;43.00;22.80;;;2.90;99.90;;;;;;5051367;28;20053;-68
2022/12/03 07:51:14;;;;;;;40.65;19.95;;;2.90;99.90;;;;;;5050310;28;20045;-68
2022/12/03 07:53:40;;;;;;;41.38;21.33;;;2.90;99.90;;;;;;5051761;28;20041;-69
2022/12/03 07:56:06;;;;;;;42.03;21.35;;;2.90;99.90;;;;;;5072316;28;20045;-68
2022/12/03 07:58:31;;;;;;;47.17;22.40;;;2.90;99.90;;;;;;5051071;28;20060;-68
2022/12/03 08:00:57;;;;;;;41.70;21.48;;;2.90;99.90;;;;;;5051429;28;20037;-69
2022/12/03 08:03:23;;;;;;;41.53;22.08;;;2.90;99.90;;;;;;5081821;28;20070;-68
2022/12/03 08:05:49;;;;;;;47.53;23.67;;;2.90;99.90;;;;;;5050463;28;20048;-69
2022/12/03 08:08:15;;;;;;;51.05;26.13;;;2.90;99.90;;;;;;5067687;28;20051;-69
2022/12/03 08:10:41;;;;;;;50.75;27.98;;;2.90;99.90;;;;;;5034435;28;20049;-69
2022/12/03 08:13:12;;;;;;;46.10;25.50;;;2.90;99.90;;;;;;5046474;28;20045;-70
2022/12/03 08:15:38;;;;;;;50.13;26.35;;;3.00;99.90;;;;;;5046436;28;20060;-69
2022/12/03 08:18:26;;;;;;;50.70;25.60;;;2.90;99.90;;;;;;5071441;28;20029;-70
2022/12/03 08:20:52;;;;;;;49.38;25.50;;;2.90;99.90;;;;;;5064177;28;20052;-68
2022/12/03 08:23:20;;;;;;;48.67;26.33;;;2.90;99.90;;;;;;5065628;28;20187;-68
2022/12/03 08:25:46;;;;;;;48.30;25.13;;;2.90;99.90;;;;;;5047203;28;20124;-67
2022/12/03 08:28:25;;;;;;;49.90;24.98;;;2.90;99.90;;;;;;5047058;28;20111;-67
2022/12/03 08:31:01;;;;;;;47.38;25.10;;;2.90;99.90;;;;;;5063566;28;20045;-67
2022/12/03 08:33:35;;;;;;;46.70;27.17;;;2.90;99.90;;;;;;5055069;28;20110;-67
2022/12/03 08:36:36;;;;;;;47.45;23.77;;;2.90;99.90;;;;;;5043787;28;20525;-67
2022/12/03 08:39:32;;;;;;;51.35;26.58;;;2.90;99.90;;;;;;5058604;28;20056;-67
2022/12/03 08:44:46;;;;;;;50.72;26.77;;;2.90;99.90;;;;;;5087727;28;20071;-74
2022/12/03 08:47:19;;;;;;;53.75;27.55;;;2.90;99.90;;;;;;5060266;28;20045;-68
2022/12/03 08:50:23;;;;;;;50.75;25.77;;;2.90;99.90;;;;;;5079828;28;20041;-71
2022/12/03 08:52:49;;;;;;;47.10;24.95;;;3.00;99.90;;;;;;5047925;28;20049;-69
2022/12/03 08:55:36;;;;;;;49.97;25.58;;;3.00;99.90;;;;;;5050883;28;20045;-69
2022/12/03 08:58:20;;;;;;;54.38;26.75;;;3.00;99.90;;;;;;5065595;28;20451;-69
2022/12/03 09:00:46;;;;;;;49.42;24.63;;;3.00;99.90;;;;;;5078346;28;20040;-69
2022/12/03 09:03:18;;;;;;;54.22;26.33;;;3.00;99.90;;;;;;5080849;28;20045;-69
2022/12/03 09:05:44;;;;;;;55.63;27.23;;;2.90;99.90;;;;;;5047182;28;20458;-69
2022/12/03 09:08:10;;;;;;;68.57;33.20;;;2.90;99.90;;;;;;5046728;28;20056;-69
2022/12/03 09:10:35;;;;;;;91.03;42.42;;;3.00;99.90;;;;;;5046226;28;20101;-69
2022/12/03 09:13:01;;;;;;;145.90;97.45;;;2.90;99.90;;;;;;5057118;28;20068;-70
2022/12/03 09:15:27;;;;;;;154.65;108.60;;;2.90;99.90;;;;;;5044515;28;20051;-71
2022/12/03 09:17:53;;;;;;;92.18;54.72;;;3.00;99.90;;;;;;5051502;28;20132;-72
2022/12/03 09:20:18;;;;;;;93.50;46.25;;;3.00;99.90;;;;;;5054856;28;20048;-75
2022/12/03 09:22:44;;;;;;;73.05;37.38;;;3.00;99.90;;;;;;5068623;28;20037;-70
2022/12/03 09:25:11;;;;;;;60.75;32.67;;;3.00;99.90;;;;;;5072240;28;20496;-70
2022/12/03 09:27:37;;;;;;;62.78;30.80;;;3.00;99.90;;;;;;5068258;28;20100;-68
2022/12/03 09:30:04;;;;;;;53.63;26.98;;;3.00;99.90;;;;;;5053180;28;20072;-69
2022/12/03 09:32:30;;;;;;;54.35;28.63;;;3.10;99.90;;;;;;5052063;28;20052;-70
2022/12/03 09:34:56;;;;;;;58.05;28.88;;;3.10;99.90;;;;;;5051133;28;20112;-70
2022/12/03 09:37:21;;;;;;;59.85;30.02;;;3.10;99.90;;;;;;5070609;28;20044;-69
2022/12/03 09:39:47;;;;;;;54.38;28.88;;;3.10;99.90;;;;;;5049336;28;20067;-69
2022/12/03 09:42:14;;;;;;;59.58;30.50;;;3.10;99.90;;;;;;5066683;28;20044;-69
2022/12/03 09:44:40;;;;;;;66.70;32.67;;;3.10;99.90;;;;;;5013714;28;20415;-68
2022/12/03 09:47:06;;;;;;;55.72;28.67;;;3.20;99.90;;;;;;5017452;28;20080;-69
2022/12/03 09:49:35;;;;;;;60.00;28.55;;;3.20;99.90;;;;;;5014615;28;20056;-71
2022/12/03 09:52:02;;;;;;;54.70;28.15;;;3.20;99.90;;;;;;5056828;28;20448;-70
2022/12/03 09:54:30;;;;;;;55.10;30.33;;;3.30;99.90;;;;;;5064733;28;20547;-68
2022/12/03 09:56:58;;;;;;;219.52;100.38;;;3.30;99.90;;;;;;5060919;28;20037;-67
2022/12/03 09:59:28;;;;;;;84.03;42.60;;;3.20;99.90;;;;;;5041376;28;20087;-70
2022/12/03 10:01:54;;;;;;;65.63;32.83;;;3.30;99.90;;;;;;5033351;28;20056;-71
2022/12/03 10:04:20;;;;;;;67.22;38.97;;;3.30;99.90;;;;;;5061500;28;20404;-67
2022/12/03 10:06:46;;;;;;;152.60;126.20;;;3.30;99.90;;;;;;5039232;28;20081;-69
2022/12/03 10:09:16;;;;;;;92.70;78.38;;;3.30;99.90;;;;;;5077000;28;20068;-69
2022/12/03 10:11:42;;;;;;;74.28;57.10;;;3.30;99.90;;;;;;5035187;28;20201;-69
2022/12/03 10:14:12;;;;;;;54.40;28.85;;;3.40;99.90;;;;;;5071845;28;20110;-68
2022/12/03 10:16:39;;;;;;;52.47;27.77;;;3.30;99.90;;;;;;5061304;28;20176;-68
2022/12/03 10:19:05;;;;;;;51.33;28.67;;;3.30;99.90;;;;;;5058373;28;20052;-68
2022/12/03 10:21:36;;;;;;;52.03;27.10;;;3.30;99.90;;;;;;5038880;28;20045;-68
2022/12/03 10:24:22;;;;;;;55.03;31.38;;;3.30;99.90;;;;;;5058672;28;20061;-68
2022/12/03 10:26:50;;;;;;;52.28;26.70;;;3.30;99.90;;;;;;5020281;28;20065;-68
2022/12/03 10:29:22;;;;;;;55.22;28.50;;;3.20;99.90;;;;;;5043943;28;20055;-69
2022/12/03 10:31:55;;;;;;;49.75;28.83;;;3.20;99.90;;;;;;5088073;28;20048;-69
2022/12/03 10:34:30;;;;;;;54.53;32.13;;;3.20;99.90;;;;;;5074446;28;20156;-69
2022/12/03 10:37:12;;;;;;;51.95;28.23;;;3.30;99.90;;;;;;5037460;28;21094;-69
2022/12/03 10:40:08;;;;;;;58.65;28.50;;;3.20;99.90;;;;;;5038542;28;20091;-68
2022/12/03 10:42:39;;;;;;;49.45;27.70;;;3.30;99.90;;;;;;5073254;28;20353;-68
2022/12/03 10:45:16;;;;;;;53.22;27.75;;;3.30;99.90;;;;;;5039420;28;20060;-68
2022/12/03 10:48:00;;;;;;;64.85;33.55;;;3.30;99.90;;;;;;5033142;28;20124;-68
2022/12/03 10:50:26;;;;;;;56.45;27.25;;;3.30;99.90;;;;;;5082773;28;20083;-68
2022/12/03 10:52:51;;;;;;;50.90;26.92;;;3.30;99.90;;;;;;5056967;28;20048;-68
2022/12/03 10:55:17;;;;;;;57.90;30.48;;;3.20;99.90;;;;;;5062430;28;20052;-68
2022/12/03 10:57:43;;;;;;;57.42;30.05;;;3.30;99.90;;;;;;5071090;28;20048;-68
2022/12/03 11:00:15;;;;;;;63.35;35.35;;;3.20;99.90;;;;;;5064900;28;20056;-69
2022/12/03 11:02:41;;;;;;;60.00;30.67;;;3.30;99.90;;;;;;5058563;28;20142;-69
2022/12/03 11:05:11;;;;;;;57.60;28.80;;;3.20;99.90;;;;;;5072504;28;20138;-70
2022/12/03 11:07:38;;;;;;;53.47;28.98;;;3.30;99.90;;;;;;5049845;28;20514;-70
2022/12/03 11:10:05;;;;;;;52.67;26.70;;;3.20;99.90;;;;;;5071971;28;20044;-71
2022/12/03 11:12:33;;;;;;;54.63;27.83;;;3.30;99.90;;;;;;5052580;28;20060;-71
2022/12/03 11:15:05;;;;;;;54.42;29.55;;;3.30;99.90;;;;;;5058065;28;20116;-71
2022/12/03 11:17:44;;;;;;;49.05;28.63;;;3.40;99.90;;;;;;5048282;28;20056;-68
2022/12/03 11:20:18;;;;;;;54.63;28.95;;;3.30;99.90;;;;;;5090035;28;20074;-68
2022/12/03 11:22:46;;;;;;;55.55;31.38;;;3.30;99.90;;;;;;5047184;28;20041;-68
2022/12/03 11:25:24;;;;;;;56.42;32.22;;;3.30;99.90;;;;;;5066615;28;20109;-68
2022/12/03 11:28:09;;;;;;;51.58;27.58;;;3.20;99.90;;;;;;5059108;28;20119;-68
2022/12/03 11:30:50;;;;;;;73.90;44.92;;;3.30;99.90;;;;;;5049107;28;20447;-68
2022/12/03 11:33:30;;;;;;;54.30;29.63;;;3.30;99.90;;;;;;5048235;28;20045;-68
2022/12/03 11:36:02;;;;;;;53.00;28.70;;;3.30;99.90;;;;;;5046022;28;20044;-64
2022/12/03 11:38:37;;;;;;;53.42;33.10;;;3.40;99.90;;;;;;5049528;28;20041;-68
2022/12/03 11:41:14;;;;;;;58.47;38.00;;;3.40;99.90;;;;;;5049379;28;20053;-68
2022/12/03 11:43:52;;;;;;;52.75;31.92;;;3.40;99.90;;;;;;5053658;28;20496;-68
2022/12/03 11:46:35;;;;;;;60.05;31.13;;;3.50;99.90;;;;;;5073801;28;20041;-68
2022/12/03 11:49:03;;;;;;;51.45;28.58;;;3.60;99.90;;;;;;5058565;28;20102;-68
2022/12/03 11:51:29;;;;;;;54.22;30.50;;;3.60;99.90;;;;;;5064454;28;20056;-69
2022/12/03 11:53:58;;;;;;;51.22;28.35;;;3.60;99.90;;;;;;5048118;28;20041;-71
2022/12/03 11:56:26;;;;;;;50.75;28.65;;;3.70;99.90;;;;;;5032139;28;20060;-71
2022/12/03 11:59:00;;;;;;;55.22;28.80;;;3.70;99.90;;;;;;5093566;28;20052;-71
2022/12/03 12:01:38;;;;;;;51.60;27.45;;;3.80;99.90;;;;;;5049291;28;20049;-71
2022/12/03 12:04:04;;;;;;;55.40;29.27;;;3.80;99.90;;;;;;5055513;28;20048;-70
2022/12/03 12:06:40;;;;;;;54.80;29.17;;;3.80;99.90;;;;;;5040369;28;20045;-71
2022/12/03 12:09:06;;;;;;;57.65;29.67;;;3.80;99.90;;;;;;5076467;28;20041;-71
2022/12/03 12:11:40;;;;;;;55.72;29.65;;;3.80;99.90;;;;;;5047276;28;20103;-71
2022/12/03 12:14:07;;;;;;;59.03;32.58;;;3.90;99.90;;;;;;5048537;28;20098;-71
2022/12/03 12:16:53;;;;;;;49.83;29.13;;;3.90;99.90;;;;;;5066279;28;20052;-71
2022/12/03 12:19:41;;;;;;;50.05;27.10;;;3.90;99.90;;;;;;5066144;28;20134;-71
2022/12/03 12:22:23;;;;;;;55.78;27.40;;;3.90;99.90;;;;;;5081105;28;20056;-71
2022/12/03 12:25:02;;;;;;;54.65;29.50;;;4.00;99.90;;;;;;5048364;28;20053;-70
2022/12/03 12:27:49;;;;;;;61.10;33.03;;;4.10;99.90;;;;;;5095869;28;20049;-71
2022/12/03 12:30:23;;;;;;;63.90;34.25;;;4.10;99.90;;;;;;5055997;28;20045;-71
2022/12/03 12:32:49;;;;;;;54.78;33.70;;;4.20;99.90;;;;;;5066031;28;20057;-71
2022/12/03 12:35:20;;;;;;;55.47;33.58;;;4.40;99.90;;;;;;5050441;28;20053;-71
2022/12/03 12:37:52;;;;;;;55.25;32.60;;;4.50;99.90;;;;;;5079851;28;20071;-71
2022/12/03 12:40:25;;;;;;;55.95;32.03;;;4.60;99.90;;;;;;5080605;28;20123;-71
2022/12/03 12:42:54;;;;;;;58.30;32.92;;;4.70;99.90;;;;;;5047700;28;20124;-71
2022/12/03 12:45:22;;;;;;;55.88;30.08;;;4.70;99.90;;;;;;5046547;28;20045;-71
2022/12/03 12:48:05;;;;;;;46.20;27.13;;;4.70;99.90;;;;;;5047203;28;20048;-71
2022/12/03 12:50:34;;;;;;;49.85;27.27;;;4.70;99.90;;;;;;5060424;28;20091;-71
2022/12/03 12:53:22;;;;;;;48.72;26.10;;;4.60;99.90;;;;;;5047402;28;20397;-71
2022/12/03 12:55:53;;;;;;;47.22;26.10;;;4.40;99.90;;;;;;5083571;28;20048;-71
2022/12/03 12:58:19;;;;;;;45.22;26.50;;;4.20;99.90;;;;;;5084637;28;20147;-70
2022/12/03 13:00:50;;;;;;;48.30;25.92;;;4.20;99.90;;;;;;5046782;28;20074;-70